sensor_id;sensor_type;location;lat;lon;timestamp;P1;durP1;ratioP1;P2;durP2;ratioP2
1380;SDS011;684;48.342;10.096;2024-03-25T00:01:27;4.37;;;1.80;;
1380;SDS011;684;48.342;10.096;2024-03-25T00:03:53;5.47;;;1.80;;
1380;SDS011;684;48.342;10.096;2024-03-25T00:06:20;6.53;;;1.50;;
1380;SDS011;684;48.342;10.096;2024-03-25T00:08:46;5.47;;;2.33;;
1380;SDS011;684;48.342;10.096;2024-03-25T00:11:13;5.37;;;1.90;;
1380;SDS011;684;48.342;10.096;2024-03-25T00:13:39;5.63;;;2.30;;
1380;SDS011;684;48.342;10.096;2024-03-25T00:16:06;8.23;;;1.70;;
1380;SDS011;684;48.342;10.096;2024-03-25T00:18:33;6.90;;;2.23;;
1380;SDS011;684;48.342;10.096;2024-03-25T00:21:00;7.00;;;2.03;;
1380;SDS011;684;48.342;10.096;2024-03-25T00:23:26;5.50;;;2.13;;
1380;SDS011;684;48.342;10.096;2024-03-25T00:25:52;6.13;;;2.23;;
1380;SDS011;684;48.342;10.096;2024-03-25T00:28:18;7.93;;;2.23;;
1380;SDS011;684;48.342;10.096;2024-03-25T00:30:45;4.43;;;1.87;;
1380;SDS011;684;48.342;10.096;2024-03-25T00:33:11;5.00;;;1.97;;
1380;SDS011;684;48.342;10.096;2024-03-25T00:35:39;7.47;;;3.50;;
1380;SDS011;684;48.342;10.096;2024-03-25T00:38:05;6.23;;;1.93;;
1380;SDS011;684;48.342;10.096;2024-03-25T00:40:32;5.70;;;2.03;;
1380;SDS011;684;48.342;10.096;2024-03-25T00:42:59;8.80;;;2.10;;
1380;SDS011;684;48.342;10.096;2024-03-25T00:45:26;6.03;;;2.40;;
1380;SDS011;684;48.342;10.096;2024-03-25T00:47:55;7.00;;;2.10;;
1380;SDS011;684;48.342;10.096;2024-03-25T00:50:22;10.70;;;2.17;;
1380;SDS011;684;48.342;10.096;2024-03-25T00:52:49;5.30;;;2.27;;
1380;SDS011;684;48.342;10.096;2024-03-25T00:55:16;8.63;;;2.20;;
1380;SDS011;684;48.342;10.096;2024-03-25T00:57:42;6.10;;;2.53;;
1380;SDS011;684;48.342;10.096;2024-03-25T01:00:09;6.43;;;2.07;;
1380;SDS011;684;48.342;10.096;2024-03-25T01:02:35;8.20;;;2.90;;
1380;SDS011;684;48.342;10.096;2024-03-25T01:05:02;8.40;;;2.83;;
1380;SDS011;684;48.342;10.096;2024-03-25T01:07:30;4.73;;;2.17;;
1380;SDS011;684;48.342;10.096;2024-03-25T01:09:58;4.63;;;2.23;;
1380;SDS011;684;48.342;10.096;2024-03-25T01:12:24;4.93;;;1.70;;
1380;SDS011;684;48.342;10.096;2024-03-25T01:14:51;4.20;;;1.80;;
1380;SDS011;684;48.342;10.096;2024-03-25T01:17:16;6.73;;;2.83;;
1380;SDS011;684;48.342;10.096;2024-03-25T01:19:43;5.93;;;2.30;;
1380;SDS011;684;48.342;10.096;2024-03-25T01:22:09;6.30;;;3.23;;
1380;SDS011;684;48.342;10.096;2024-03-25T01:24:36;7.67;;;2.63;;
1380;SDS011;684;48.342;10.096;2024-03-25T01:27:03;5.53;;;2.83;;
1380;SDS011;684;48.342;10.096;2024-03-25T01:29:30;6.03;;;2.27;;
1380;SDS011;684;48.342;10.096;2024-03-25T01:31:56;6.00;;;2.50;;
1380;SDS011;684;48.342;10.096;2024-03-25T01:34:24;4.97;;;2.30;;
1380;SDS011;684;48.342;10.096;2024-03-25T01:36:50;6.57;;;2.57;;
1380;SDS011;684;48.342;10.096;2024-03-25T01:39:17;4.43;;;2.10;;
1380;SDS011;684;48.342;10.096;2024-03-25T01:41:43;6.13;;;2.00;;
1380;SDS011;684;48.342;10.096;2024-03-25T01:44:11;9.20;;;2.80;;
1380;SDS011;684;48.342;10.096;2024-03-25T01:46:37;6.17;;;2.03;;
1380;SDS011;684;48.342;10.096;2024-03-25T01:49:05;7.90;;;2.50;;
1380;SDS011;684;48.342;10.096;2024-03-25T01:51:32;5.30;;;2.63;;
1380;SDS011;684;48.342;10.096;2024-03-25T01:54:00;6.57;;;2.73;;
1380;SDS011;684;48.342;10.096;2024-03-25T01:56:27;6.47;;;2.27;;
1380;SDS011;684;48.342;10.096;2024-03-25T01:58:57;8.67;;;2.57;;
1380;SDS011;684;48.342;10.096;2024-03-25T02:01:25;8.27;;;2.30;;
1380;SDS011;684;48.342;10.096;2024-03-25T02:03:52;6.43;;;2.40;;
1380;SDS011;684;48.342;10.096;2024-03-25T02:06:19;6.50;;;2.30;;
1380;SDS011;684;48.342;10.096;2024-03-25T02:08:47;5.63;;;2.17;;
1380;SDS011;684;48.342;10.096;2024-03-25T02:11:14;6.53;;;2.40;;
1380;SDS011;684;48.342;10.096;2024-03-25T02:13:42;6.13;;;2.40;;
1380;SDS011;684;48.342;10.096;2024-03-25T02:16:08;6.40;;;2.00;;
1380;SDS011;684;48.342;10.096;2024-03-25T02:18:36;6.10;;;2.70;;
1380;SDS011;684;48.342;10.096;2024-03-25T02:21:02;4.60;;;2.00;;
1380;SDS011;684;48.342;10.096;2024-03-25T02:23:30;5.53;;;2.07;;
1380;SDS011;684;48.342;10.096;2024-03-25T02:25:58;6.97;;;2.80;;
1380;SDS011;684;48.342;10.096;2024-03-25T02:28:25;5.97;;;2.40;;
1380;SDS011;684;48.342;10.096;2024-03-25T02:30:51;4.53;;;1.93;;
1380;SDS011;684;48.342;10.096;2024-03-25T02:33:17;4.90;;;2.30;;
1380;SDS011;684;48.342;10.096;2024-03-25T02:35:43;5.13;;;2.40;;
1380;SDS011;684;48.342;10.096;2024-03-25T02:38:11;5.00;;;2.20;;
1380;SDS011;684;48.342;10.096;2024-03-25T02:40:39;4.93;;;2.27;;
1380;SDS011;684;48.342;10.096;2024-03-25T02:43:07;5.73;;;2.00;;
1380;SDS011;684;48.342;10.096;2024-03-25T02:45:35;5.53;;;2.37;;
1380;SDS011;684;48.342;10.096;2024-03-25T02:48:02;5.97;;;2.30;;
1380;SDS011;684;48.342;10.096;2024-03-25T02:50:28;5.07;;;1.93;;
1380;SDS011;684;48.342;10.096;2024-03-25T02:52:55;6.77;;;2.70;;
1380;SDS011;684;48.342;10.096;2024-03-25T02:55:21;6.83;;;2.33;;
1380;SDS011;684;48.342;10.096;2024-03-25T02:57:48;5.80;;;2.50;;
1380;SDS011;684;48.342;10.096;2024-03-25T03:00:15;6.73;;;2.40;;
1380;SDS011;684;48.342;10.096;2024-03-25T03:02:42;8.87;;;2.40;;
1380;SDS011;684;48.342;10.096;2024-03-25T03:05:08;4.53;;;2.20;;
1380;SDS011;684;48.342;10.096;2024-03-25T03:07:35;7.87;;;2.30;;
1380;SDS011;684;48.342;10.096;2024-03-25T03:10:01;6.80;;;2.63;;
1380;SDS011;684;48.342;10.096;2024-03-25T03:12:27;5.80;;;2.50;;
1380;SDS011;684;48.342;10.096;2024-03-25T03:14:53;5.90;;;1.93;;
1380;SDS011;684;48.342;10.096;2024-03-25T03:17:21;7.90;;;2.27;;
1380;SDS011;684;48.342;10.096;2024-03-25T03:19:47;6.40;;;2.10;;
1380;SDS011;684;48.342;10.096;2024-03-25T03:22:14;4.77;;;2.10;;
1380;SDS011;684;48.342;10.096;2024-03-25T03:24:40;5.03;;;2.47;;
1380;SDS011;684;48.342;10.096;2024-03-25T03:27:06;6.20;;;2.43;;
1380;SDS011;684;48.342;10.096;2024-03-25T03:29:32;5.00;;;1.80;;
1380;SDS011;684;48.342;10.096;2024-03-25T03:31:59;7.77;;;2.50;;
1380;SDS011;684;48.342;10.096;2024-03-25T03:34:26;4.87;;;2.20;;
1380;SDS011;684;48.342;10.096;2024-03-25T03:36:53;4.30;;;2.00;;
1380;SDS011;684;48.342;10.096;2024-03-25T03:39:19;6.13;;;2.63;;
1380;SDS011;684;48.342;10.096;2024-03-25T03:41:45;10.30;;;2.40;;
1380;SDS011;684;48.342;10.096;2024-03-25T03:44:11;7.27;;;2.63;;
1380;SDS011;684;48.342;10.096;2024-03-25T03:46:40;6.10;;;2.30;;
1380;SDS011;684;48.342;10.096;2024-03-25T03:49:05;4.43;;;2.37;;
1380;SDS011;684;48.342;10.096;2024-03-25T03:51:34;8.73;;;2.10;;
1380;SDS011;684;48.342;10.096;2024-03-25T03:53:59;4.53;;;2.00;;
1380;SDS011;684;48.342;10.096;2024-03-25T03:56:26;5.40;;;2.27;;
1380;SDS011;684;48.342;10.096;2024-03-25T03:58:52;4.50;;;2.40;;
1380;SDS011;684;48.342;10.096;2024-03-25T04:01:19;6.37;;;2.43;;
1380;SDS011;684;48.342;10.096;2024-03-25T04:03:45;7.33;;;2.63;;
1380;SDS011;684;48.342;10.096;2024-03-25T04:06:12;6.10;;;2.60;;
1380;SDS011;684;48.342;10.096;2024-03-25T04:08:40;5.07;;;2.50;;
1380;SDS011;684;48.342;10.096;2024-03-25T04:11:06;7.83;;;2.60;;
1380;SDS011;684;48.342;10.096;2024-03-25T04:13:33;8.77;;;3.10;;
1380;SDS011;684;48.342;10.096;2024-03-25T04:16:00;5.90;;;3.00;;
1380;SDS011;684;48.342;10.096;2024-03-25T04:18:28;12.90;;;3.00;;
1380;SDS011;684;48.342;10.096;2024-03-25T04:20:54;4.30;;;2.07;;
1380;SDS011;684;48.342;10.096;2024-03-25T04:23:20;5.70;;;2.47;;
1380;SDS011;684;48.342;10.096;2024-03-25T04:25:49;6.80;;;2.93;;
1380;SDS011;684;48.342;10.096;2024-03-25T04:28:15;7.80;;;3.03;;
1380;SDS011;684;48.342;10.096;2024-03-25T04:30:42;5.40;;;2.40;;
1380;SDS011;684;48.342;10.096;2024-03-25T04:33:08;5.50;;;2.33;;
1380;SDS011;684;48.342;10.096;2024-03-25T04:35:35;7.40;;;2.90;;
1380;SDS011;684;48.342;10.096;2024-03-25T04:38:00;8.20;;;3.00;;
1380;SDS011;684;48.342;10.096;2024-03-25T04:40:27;7.50;;;2.60;;
1380;SDS011;684;48.342;10.096;2024-03-25T04:42:54;5.67;;;2.70;;
1380;SDS011;684;48.342;10.096;2024-03-25T04:45:20;7.00;;;3.30;;
1380;SDS011;684;48.342;10.096;2024-03-25T04:47:46;6.33;;;2.37;;
1380;SDS011;684;48.342;10.096;2024-03-25T04:50:12;5.30;;;2.70;;
1380;SDS011;684;48.342;10.096;2024-03-25T04:52:37;4.70;;;2.20;;
1380;SDS011;684;48.342;10.096;2024-03-25T04:55:03;9.07;;;2.80;;
1380;SDS011;684;48.342;10.096;2024-03-25T04:57:30;6.20;;;2.93;;
1380;SDS011;684;48.342;10.096;2024-03-25T04:59:57;7.30;;;2.63;;
1380;SDS011;684;48.342;10.096;2024-03-25T05:02:23;10.20;;;3.57;;
1380;SDS011;684;48.342;10.096;2024-03-25T05:04:49;7.03;;;2.50;;
1380;SDS011;684;48.342;10.096;2024-03-25T05:07:15;5.67;;;2.90;;
1380;SDS011;684;48.342;10.096;2024-03-25T05:09:40;5.83;;;2.33;;
1380;SDS011;684;48.342;10.096;2024-03-25T05:12:06;7.23;;;3.00;;
1380;SDS011;684;48.342;10.096;2024-03-25T05:14:32;6.63;;;3.17;;
1380;SDS011;684;48.342;10.096;2024-03-25T05:17:00;6.53;;;2.90;;
1380;SDS011;684;48.342;10.096;2024-03-25T05:19:26;7.20;;;2.60;;
1380;SDS011;684;48.342;10.096;2024-03-25T05:21:52;8.77;;;3.30;;
1380;SDS011;684;48.342;10.096;2024-03-25T05:24:17;9.33;;;3.30;;
1380;SDS011;684;48.342;10.096;2024-03-25T05:26:43;15.90;;;3.27;;
1380;SDS011;684;48.342;10.096;2024-03-25T05:29:09;7.50;;;5.07;;
1380;SDS011;684;48.342;10.096;2024-03-25T05:31:35;7.47;;;3.50;;
1380;SDS011;684;48.342;10.096;2024-03-25T05:34:03;8.20;;;3.00;;
1380;SDS011;684;48.342;10.096;2024-03-25T05:36:28;8.53;;;3.80;;
1380;SDS011;684;48.342;10.096;2024-03-25T05:38:54;9.20;;;3.40;;
1380;SDS011;684;48.342;10.096;2024-03-25T05:41:20;6.40;;;3.20;;
1380;SDS011;684;48.342;10.096;2024-03-25T05:43:46;9.00;;;3.60;;
1380;SDS011;684;48.342;10.096;2024-03-25T05:46:12;6.43;;;2.90;;
1380;SDS011;684;48.342;10.096;2024-03-25T05:48:38;5.37;;;3.10;;
1380;SDS011;684;48.342;10.096;2024-03-25T05:51:05;5.93;;;3.10;;
1380;SDS011;684;48.342;10.096;2024-03-25T05:53:32;9.80;;;3.63;;
1380;SDS011;684;48.342;10.096;2024-03-25T05:55:58;5.40;;;3.10;;
1380;SDS011;684;48.342;10.096;2024-03-25T05:58:24;6.03;;;3.60;;
1380;SDS011;684;48.342;10.096;2024-03-25T06:00:50;5.30;;;2.67;;
1380;SDS011;684;48.342;10.096;2024-03-25T06:03:17;8.73;;;3.70;;
1380;SDS011;684;48.342;10.096;2024-03-25T06:05:43;9.23;;;3.70;;
1380;SDS011;684;48.342;10.096;2024-03-25T06:08:11;8.10;;;3.03;;
1380;SDS011;684;48.342;10.096;2024-03-25T06:10:41;7.90;;;4.00;;
1380;SDS011;684;48.342;10.096;2024-03-25T06:13:07;7.40;;;3.30;;
1380;SDS011;684;48.342;10.096;2024-03-25T06:15:32;6.97;;;2.80;;
1380;SDS011;684;48.342;10.096;2024-03-25T06:17:58;7.73;;;3.47;;
1380;SDS011;684;48.342;10.096;2024-03-25T06:20:24;6.43;;;3.57;;
1380;SDS011;684;48.342;10.096;2024-03-25T06:22:50;6.27;;;3.60;;
1380;SDS011;684;48.342;10.096;2024-03-25T06:25:17;9.43;;;3.80;;
1380;SDS011;684;48.342;10.096;2024-03-25T06:27:43;6.57;;;3.63;;
1380;SDS011;684;48.342;10.096;2024-03-25T06:30:09;6.90;;;3.00;;
1380;SDS011;684;48.342;10.096;2024-03-25T06:32:55;9.33;;;3.47;;
1380;SDS011;684;48.342;10.096;2024-03-25T06:35:39;6.27;;;3.20;;
1380;SDS011;684;48.342;10.096;2024-03-25T06:38:07;6.80;;;3.30;;
1380;SDS011;684;48.342;10.096;2024-03-25T06:40:34;5.30;;;2.80;;
1380;SDS011;684;48.342;10.096;2024-03-25T06:43:00;6.13;;;2.80;;
1380;SDS011;684;48.342;10.096;2024-03-25T06:45:26;5.20;;;2.80;;
1380;SDS011;684;48.342;10.096;2024-03-25T06:47:52;6.50;;;3.70;;
1380;SDS011;684;48.342;10.096;2024-03-25T06:50:18;7.40;;;3.20;;
1380;SDS011;684;48.342;10.096;2024-03-25T06:52:44;7.90;;;2.70;;
1380;SDS011;684;48.342;10.096;2024-03-25T06:55:09;12.13;;;3.10;;
1380;SDS011;684;48.342;10.096;2024-03-25T06:57:36;6.33;;;2.80;;
1380;SDS011;684;48.342;10.096;2024-03-25T07:00:02;5.40;;;2.43;;
1380;SDS011;684;48.342;10.096;2024-03-25T07:02:29;10.83;;;3.10;;
1380;SDS011;684;48.342;10.096;2024-03-25T07:04:55;5.23;;;2.70;;
1380;SDS011;684;48.342;10.096;2024-03-25T07:07:21;4.93;;;2.43;;
1380;SDS011;684;48.342;10.096;2024-03-25T07:09:46;5.50;;;2.57;;
1380;SDS011;684;48.342;10.096;2024-03-25T07:12:12;6.33;;;2.60;;
1380;SDS011;684;48.342;10.096;2024-03-25T07:14:39;7.03;;;2.57;;
1380;SDS011;684;48.342;10.096;2024-03-25T07:17:05;5.03;;;2.73;;
1380;SDS011;684;48.342;10.096;2024-03-25T07:19:31;6.70;;;2.70;;
1380;SDS011;684;48.342;10.096;2024-03-25T07:21:57;6.93;;;2.20;;
1380;SDS011;684;48.342;10.096;2024-03-25T07:24:23;5.83;;;2.33;;
1380;SDS011;684;48.342;10.096;2024-03-25T07:26:49;4.90;;;2.13;;
1380;SDS011;684;48.342;10.096;2024-03-25T07:29:15;6.50;;;2.90;;
1380;SDS011;684;48.342;10.096;2024-03-25T07:31:42;7.17;;;2.90;;
1380;SDS011;684;48.342;10.096;2024-03-25T07:34:08;6.60;;;2.50;;
1380;SDS011;684;48.342;10.096;2024-03-25T07:36:34;5.10;;;2.53;;
1380;SDS011;684;48.342;10.096;2024-03-25T07:39:00;6.80;;;3.20;;
1380;SDS011;684;48.342;10.096;2024-03-25T07:41:26;5.13;;;2.80;;
1380;SDS011;684;48.342;10.096;2024-03-25T07:43:52;7.83;;;2.57;;
1380;SDS011;684;48.342;10.096;2024-03-25T07:46:18;5.97;;;2.67;;
1380;SDS011;684;48.342;10.096;2024-03-25T07:48:45;5.70;;;2.10;;
1380;SDS011;684;48.342;10.096;2024-03-25T07:51:11;5.50;;;2.30;;
1380;SDS011;684;48.342;10.096;2024-03-25T07:53:36;6.90;;;2.80;;
1380;SDS011;684;48.342;10.096;2024-03-25T07:56:02;4.87;;;2.70;;
1380;SDS011;684;48.342;10.096;2024-03-25T07:58:29;6.30;;;2.80;;
1380;SDS011;684;48.342;10.096;2024-03-25T08:00:55;4.73;;;2.10;;
1380;SDS011;684;48.342;10.096;2024-03-25T08:03:20;5.40;;;2.60;;
1380;SDS011;684;48.342;10.096;2024-03-25T08:05:48;4.80;;;2.10;;
1380;SDS011;684;48.342;10.096;2024-03-25T08:08:14;5.33;;;2.13;;
1380;SDS011;684;48.342;10.096;2024-03-25T08:10:39;6.73;;;2.47;;
1380;SDS011;684;48.342;10.096;2024-03-25T08:13:05;6.80;;;2.67;;
1380;SDS011;684;48.342;10.096;2024-03-25T08:15:31;4.50;;;2.07;;
1380;SDS011;684;48.342;10.096;2024-03-25T08:17:57;4.67;;;2.60;;
1380;SDS011;684;48.342;10.096;2024-03-25T08:20:23;5.50;;;2.30;;
1380;SDS011;684;48.342;10.096;2024-03-25T08:22:50;5.50;;;2.80;;
1380;SDS011;684;48.342;10.096;2024-03-25T08:25:16;6.03;;;2.40;;
1380;SDS011;684;48.342;10.096;2024-03-25T08:27:42;4.20;;;2.30;;
1380;SDS011;684;48.342;10.096;2024-03-25T08:30:08;5.60;;;2.90;;
1380;SDS011;684;48.342;10.096;2024-03-25T08:32:35;7.50;;;2.67;;
1380;SDS011;684;48.342;10.096;2024-03-25T08:35:01;4.80;;;2.13;;
1380;SDS011;684;48.342;10.096;2024-03-25T08:37:27;4.67;;;2.53;;
1380;SDS011;684;48.342;10.096;2024-03-25T08:39:54;4.90;;;2.37;;
1380;SDS011;684;48.342;10.096;2024-03-25T08:42:20;5.13;;;2.63;;
1380;SDS011;684;48.342;10.096;2024-03-25T08:44:46;5.40;;;3.00;;
1380;SDS011;684;48.342;10.096;2024-03-25T08:47:12;5.20;;;2.87;;
1380;SDS011;684;48.342;10.096;2024-03-25T08:49:38;4.97;;;2.80;;
1380;SDS011;684;48.342;10.096;2024-03-25T08:52:04;5.40;;;2.20;;
1380;SDS011;684;48.342;10.096;2024-03-25T08:54:30;5.10;;;2.70;;
1380;SDS011;684;48.342;10.096;2024-03-25T08:56:57;4.47;;;2.50;;
1380;SDS011;684;48.342;10.096;2024-03-25T08:59:23;5.80;;;2.87;;
1380;SDS011;684;48.342;10.096;2024-03-25T09:01:48;6.37;;;2.63;;
1380;SDS011;684;48.342;10.096;2024-03-25T09:04:14;5.23;;;2.70;;
1380;SDS011;684;48.342;10.096;2024-03-25T09:06:40;4.60;;;2.37;;
1380;SDS011;684;48.342;10.096;2024-03-25T09:09:06;5.70;;;2.70;;
1380;SDS011;684;48.342;10.096;2024-03-25T09:11:50;4.50;;;2.17;;
1380;SDS011;684;48.342;10.096;2024-03-25T09:14:17;3.97;;;1.83;;
1380;SDS011;684;48.342;10.096;2024-03-25T09:16:43;5.60;;;2.30;;
1380;SDS011;684;48.342;10.096;2024-03-25T09:19:09;5.03;;;2.60;;
1380;SDS011;684;48.342;10.096;2024-03-25T09:21:35;5.50;;;2.40;;
1380;SDS011;684;48.342;10.096;2024-03-25T09:24:01;4.90;;;2.40;;
1380;SDS011;684;48.342;10.096;2024-03-25T09:26:27;4.80;;;2.40;;
1380;SDS011;684;48.342;10.096;2024-03-25T09:28:52;5.20;;;2.17;;
1380;SDS011;684;48.342;10.096;2024-03-25T09:31:20;4.67;;;1.60;;
1380;SDS011;684;48.342;10.096;2024-03-25T09:33:45;5.10;;;1.97;;
1380;SDS011;684;48.342;10.096;2024-03-25T09:36:11;4.17;;;1.80;;
1380;SDS011;684;48.342;10.096;2024-03-25T09:38:37;6.60;;;1.90;;
1380;SDS011;684;48.342;10.096;2024-03-25T09:41:03;4.20;;;1.87;;
1380;SDS011;684;48.342;10.096;2024-03-25T09:43:30;4.37;;;2.00;;
1380;SDS011;684;48.342;10.096;2024-03-25T09:46:02;5.23;;;2.60;;
1380;SDS011;684;48.342;10.096;2024-03-25T09:48:29;5.07;;;2.13;;
1380;SDS011;684;48.342;10.096;2024-03-25T09:50:56;5.20;;;1.50;;
1380;SDS011;684;48.342;10.096;2024-03-25T09:53:22;4.27;;;1.40;;
1380;SDS011;684;48.342;10.096;2024-03-25T09:55:48;4.70;;;1.97;;
1380;SDS011;684;48.342;10.096;2024-03-25T09:58:14;4.20;;;1.77;;
1380;SDS011;684;48.342;10.096;2024-03-25T10:00:43;6.90;;;2.00;;
1380;SDS011;684;48.342;10.096;2024-03-25T10:03:09;4.47;;;1.60;;
1380;SDS011;684;48.342;10.096;2024-03-25T10:05:36;4.93;;;1.63;;
1380;SDS011;684;48.342;10.096;2024-03-25T10:08:03;5.30;;;1.70;;
1380;SDS011;684;48.342;10.096;2024-03-25T10:10:30;4.80;;;1.70;;
1380;SDS011;684;48.342;10.096;2024-03-25T10:12:56;4.50;;;1.33;;
1380;SDS011;684;48.342;10.096;2024-03-25T10:15:22;4.47;;;1.50;;
1380;SDS011;684;48.342;10.096;2024-03-25T10:17:49;4.47;;;1.57;;
1380;SDS011;684;48.342;10.096;2024-03-25T10:20:15;4.50;;;1.33;;
1380;SDS011;684;48.342;10.096;2024-03-25T10:22:42;4.47;;;1.50;;
1380;SDS011;684;48.342;10.096;2024-03-25T10:25:18;4.80;;;1.80;;
1380;SDS011;684;48.342;10.096;2024-03-25T10:27:52;5.67;;;2.30;;
1380;SDS011;684;48.342;10.096;2024-03-25T10:30:19;4.73;;;1.90;;
1380;SDS011;684;48.342;10.096;2024-03-25T10:32:45;4.83;;;1.60;;
1380;SDS011;684;48.342;10.096;2024-03-25T10:35:11;4.83;;;1.83;;
1380;SDS011;684;48.342;10.096;2024-03-25T10:37:38;5.50;;;1.93;;
1380;SDS011;684;48.342;10.096;2024-03-25T10:40:07;3.77;;;1.90;;
1380;SDS011;684;48.342;10.096;2024-03-25T10:42:35;6.57;;;1.60;;
1380;SDS011;684;48.342;10.096;2024-03-25T10:45:04;6.90;;;2.07;;
1380;SDS011;684;48.342;10.096;2024-03-25T10:47:33;5.40;;;1.93;;
1380;SDS011;684;48.342;10.096;2024-03-25T10:50:01;4.80;;;1.70;;
1380;SDS011;684;48.342;10.096;2024-03-25T10:52:34;6.33;;;2.07;;
1380;SDS011;684;48.342;10.096;2024-03-25T10:55:01;4.27;;;2.03;;
1380;SDS011;684;48.342;10.096;2024-03-25T10:57:29;4.50;;;2.07;;
1380;SDS011;684;48.342;10.096;2024-03-25T10:59:56;4.73;;;2.10;;
1380;SDS011;684;48.342;10.096;2024-03-25T11:02:23;4.57;;;2.43;;
1380;SDS011;684;48.342;10.096;2024-03-25T11:04:49;4.60;;;2.20;;
1380;SDS011;684;48.342;10.096;2024-03-25T11:07:16;5.23;;;2.10;;
1380;SDS011;684;48.342;10.096;2024-03-25T11:09:42;6.07;;;2.47;;
1380;SDS011;684;48.342;10.096;2024-03-25T11:12:09;4.60;;;1.90;;
1380;SDS011;684;48.342;10.096;2024-03-25T11:14:37;5.70;;;1.80;;
1380;SDS011;684;48.342;10.096;2024-03-25T11:17:13;4.93;;;2.20;;
1380;SDS011;684;48.342;10.096;2024-03-25T11:19:40;5.77;;;2.00;;
1380;SDS011;684;48.342;10.096;2024-03-25T11:22:06;4.10;;;1.60;;
1380;SDS011;684;48.342;10.096;2024-03-25T11:24:34;4.33;;;1.70;;
1380;SDS011;684;48.342;10.096;2024-03-25T11:27:00;4.17;;;1.50;;
1380;SDS011;684;48.342;10.096;2024-03-25T11:29:26;5.00;;;1.70;;
1380;SDS011;684;48.342;10.096;2024-03-25T11:31:54;4.20;;;1.40;;
1380;SDS011;684;48.342;10.096;2024-03-25T11:34:24;4.33;;;1.80;;
1380;SDS011;684;48.342;10.096;2024-03-25T11:36:50;6.17;;;1.57;;
1380;SDS011;684;48.342;10.096;2024-03-25T11:39:16;4.03;;;1.40;;
1380;SDS011;684;48.342;10.096;2024-03-25T11:41:42;4.00;;;1.33;;
1380;SDS011;684;48.342;10.096;2024-03-25T11:44:08;4.50;;;1.43;;
1380;SDS011;684;48.342;10.096;2024-03-25T11:46:35;5.10;;;1.73;;
1380;SDS011;684;48.342;10.096;2024-03-25T11:49:03;4.70;;;1.60;;
1380;SDS011;684;48.342;10.096;2024-03-25T11:51:30;5.60;;;1.83;;
1380;SDS011;684;48.342;10.096;2024-03-25T11:53:56;4.10;;;2.00;;
1380;SDS011;684;48.342;10.096;2024-03-25T11:56:23;4.53;;;1.50;;
1380;SDS011;684;48.342;10.096;2024-03-25T11:58:49;5.43;;;1.97;;
1380;SDS011;684;48.342;10.096;2024-03-25T12:01:15;7.17;;;2.20;;
1380;SDS011;684;48.342;10.096;2024-03-25T12:03:41;6.90;;;1.80;;
1380;SDS011;684;48.342;10.096;2024-03-25T12:06:08;4.00;;;1.60;;
1380;SDS011;684;48.342;10.096;2024-03-25T12:08:34;5.30;;;2.00;;
1380;SDS011;684;48.342;10.096;2024-03-25T12:11:00;5.23;;;1.93;;
1380;SDS011;684;48.342;10.096;2024-03-25T12:13:44;5.73;;;2.40;;
1380;SDS011;684;48.342;10.096;2024-03-25T12:16:10;4.30;;;1.70;;
1380;SDS011;684;48.342;10.096;2024-03-25T12:18:39;4.53;;;1.67;;
1380;SDS011;684;48.342;10.096;2024-03-25T12:21:05;5.10;;;1.80;;
1380;SDS011;684;48.342;10.096;2024-03-25T12:23:33;7.27;;;1.93;;
1380;SDS011;684;48.342;10.096;2024-03-25T12:25:59;4.33;;;1.80;;
1380;SDS011;684;48.342;10.096;2024-03-25T12:28:25;6.13;;;1.93;;
1380;SDS011;684;48.342;10.096;2024-03-25T12:30:52;4.97;;;1.67;;
1380;SDS011;684;48.342;10.096;2024-03-25T12:33:18;6.03;;;1.53;;
1380;SDS011;684;48.342;10.096;2024-03-25T12:35:48;4.57;;;1.80;;
1380;SDS011;684;48.342;10.096;2024-03-25T12:38:23;5.27;;;1.63;;
1380;SDS011;684;48.342;10.096;2024-03-25T12:40:51;5.70;;;2.30;;
1380;SDS011;684;48.342;10.096;2024-03-25T12:43:17;5.73;;;1.70;;
1380;SDS011;684;48.342;10.096;2024-03-25T12:45:43;4.57;;;1.70;;
1380;SDS011;684;48.342;10.096;2024-03-25T12:48:09;4.17;;;1.87;;
1380;SDS011;684;48.342;10.096;2024-03-25T12:50:34;5.90;;;2.07;;
1380;SDS011;684;48.342;10.096;2024-03-25T12:53:00;4.03;;;1.63;;
1380;SDS011;684;48.342;10.096;2024-03-25T12:55:29;4.93;;;1.70;;
1380;SDS011;684;48.342;10.096;2024-03-25T12:57:55;4.63;;;1.93;;
1380;SDS011;684;48.342;10.096;2024-03-25T13:00:21;8.63;;;1.93;;
1380;SDS011;684;48.342;10.096;2024-03-25T13:02:47;7.07;;;2.03;;
1380;SDS011;684;48.342;10.096;2024-03-25T13:05:13;5.43;;;2.13;;
1380;SDS011;684;48.342;10.096;2024-03-25T13:07:39;6.20;;;1.80;;
1380;SDS011;684;48.342;10.096;2024-03-25T13:10:05;3.80;;;1.50;;
1380;SDS011;684;48.342;10.096;2024-03-25T13:12:33;8.20;;;2.63;;
1380;SDS011;684;48.342;10.096;2024-03-25T13:14:59;6.47;;;1.93;;
1380;SDS011;684;48.342;10.096;2024-03-25T13:17:25;4.90;;;2.00;;
1380;SDS011;684;48.342;10.096;2024-03-25T13:19:51;6.77;;;2.10;;
1380;SDS011;684;48.342;10.096;2024-03-25T13:22:17;5.60;;;1.70;;
1380;SDS011;684;48.342;10.096;2024-03-25T13:24:42;6.77;;;1.73;;
1380;SDS011;684;48.342;10.096;2024-03-25T13:27:08;4.73;;;1.30;;
1380;SDS011;684;48.342;10.096;2024-03-25T13:29:35;4.67;;;2.00;;
1380;SDS011;684;48.342;10.096;2024-03-25T13:32:01;6.13;;;1.80;;
1380;SDS011;684;48.342;10.096;2024-03-25T13:34:27;4.40;;;1.50;;
1380;SDS011;684;48.342;10.096;2024-03-25T13:36:53;4.33;;;2.17;;
1380;SDS011;684;48.342;10.096;2024-03-25T13:39:19;5.13;;;1.30;;
1380;SDS011;684;48.342;10.096;2024-03-25T13:41:45;5.10;;;2.03;;
1380;SDS011;684;48.342;10.096;2024-03-25T13:44:11;4.00;;;1.20;;
1380;SDS011;684;48.342;10.096;2024-03-25T13:46:38;3.97;;;1.50;;
1380;SDS011;684;48.342;10.096;2024-03-25T13:49:04;4.30;;;1.50;;
1380;SDS011;684;48.342;10.096;2024-03-25T13:51:30;4.57;;;1.30;;
1380;SDS011;684;48.342;10.096;2024-03-25T13:53:56;5.90;;;2.30;;
1380;SDS011;684;48.342;10.096;2024-03-25T13:56:21;3.80;;;1.30;;
1380;SDS011;684;48.342;10.096;2024-03-25T13:58:47;5.30;;;1.40;;
1380;SDS011;684;48.342;10.096;2024-03-25T14:01:13;4.73;;;1.30;;
1380;SDS011;684;48.342;10.096;2024-03-25T14:03:40;4.20;;;1.13;;
1380;SDS011;684;48.342;10.096;2024-03-25T14:06:06;5.00;;;1.40;;
1380;SDS011;684;48.342;10.096;2024-03-25T14:08:32;5.90;;;1.20;;
1380;SDS011;684;48.342;10.096;2024-03-25T14:10:58;5.00;;;1.50;;
1380;SDS011;684;48.342;10.096;2024-03-25T14:13:25;5.33;;;1.40;;
1380;SDS011;684;48.342;10.096;2024-03-25T14:15:50;3.90;;;1.20;;
1380;SDS011;684;48.342;10.096;2024-03-25T14:18:16;3.97;;;1.60;;
1380;SDS011;684;48.342;10.096;2024-03-25T14:20:44;4.13;;;1.40;;
1380;SDS011;684;48.342;10.096;2024-03-25T14:23:10;4.23;;;1.10;;
1380;SDS011;684;48.342;10.096;2024-03-25T14:25:37;4.53;;;1.30;;
1380;SDS011;684;48.342;10.096;2024-03-25T14:28:03;3.70;;;1.20;;
1380;SDS011;684;48.342;10.096;2024-03-25T14:30:29;5.70;;;1.30;;
1380;SDS011;684;48.342;10.096;2024-03-25T14:32:55;4.47;;;1.20;;
1380;SDS011;684;48.342;10.096;2024-03-25T14:35:21;5.60;;;1.50;;
1380;SDS011;684;48.342;10.096;2024-03-25T14:37:49;3.60;;;1.10;;
1380;SDS011;684;48.342;10.096;2024-03-25T14:40:15;3.80;;;1.40;;
1380;SDS011;684;48.342;10.096;2024-03-25T14:42:41;4.23;;;1.00;;
1380;SDS011;684;48.342;10.096;2024-03-25T14:45:07;9.10;;;3.07;;
1380;SDS011;684;48.342;10.096;2024-03-25T14:47:33;4.67;;;1.37;;
1380;SDS011;684;48.342;10.096;2024-03-25T14:49:59;6.80;;;1.30;;
1380;SDS011;684;48.342;10.096;2024-03-25T14:52:25;3.70;;;1.40;;
1380;SDS011;684;48.342;10.096;2024-03-25T14:54:52;5.70;;;1.30;;
1380;SDS011;684;48.342;10.096;2024-03-25T14:57:18;4.23;;;1.60;;
1380;SDS011;684;48.342;10.096;2024-03-25T14:59:43;6.57;;;2.23;;
1380;SDS011;684;48.342;10.096;2024-03-25T15:02:09;5.37;;;1.40;;
1380;SDS011;684;48.342;10.096;2024-03-25T15:04:35;5.23;;;1.40;;
1380;SDS011;684;48.342;10.096;2024-03-25T15:07:01;5.90;;;1.10;;
1380;SDS011;684;48.342;10.096;2024-03-25T15:09:27;4.40;;;1.30;;
1380;SDS011;684;48.342;10.096;2024-03-25T15:11:54;4.10;;;1.10;;